createdAt,value
2018-09-04T00:01:58.265Z,20.49
2018-09-04T00:04:27.974Z,20.50
2018-09-04T00:06:57.671Z,20.44
2018-09-04T00:09:27.392Z,20.40
2018-09-04T00:11:57.096Z,20.36
2018-09-04T00:14:26.844Z,20.41
2018-09-04T00:16:56.749Z,20.35
2018-09-04T00:19:26.452Z,20.32
2018-09-04T00:21:56.196Z,20.25
2018-09-04T00:24:25.880Z,20.19
2018-09-04T00:26:55.564Z,20.17
2018-09-04T00:29:25.281Z,20.11
2018-09-04T00:31:55.012Z,20.10
2018-09-04T00:34:24.797Z,20.04
2018-09-04T00:36:54.637Z,19.95
2018-09-04T00:39:24.328Z,19.98
2018-09-04T00:41:54.084Z,20.01
2018-09-04T00:44:23.753Z,20.01
2018-09-04T00:46:53.437Z,19.96
2018-09-04T00:49:23.160Z,19.91
2018-09-04T00:51:52.852Z,19.96
2018-09-04T00:54:22.528Z,19.99
2018-09-04T00:56:52.284Z,19.93
2018-09-04T00:59:21.964Z,19.95
2018-09-04T01:01:51.628Z,19.98
2018-09-04T01:04:21.432Z,19.97
2018-09-04T01:06:51.119Z,19.93
2018-09-04T01:09:22.516Z,19.81
2018-09-04T01:11:52.711Z,19.77
2018-09-04T01:14:22.432Z,19.63
2018-09-04T01:16:52.136Z,19.39
2018-09-04T01:19:21.836Z,19.26
2018-09-04T01:21:51.551Z,19.26
2018-09-04T01:24:21.344Z,19.12
2018-09-04T01:26:51.073Z,18.97
2018-09-04T01:29:20.824Z,19.01
2018-09-04T01:31:50.556Z,18.93
2018-09-04T01:34:20.273Z,18.87
2018-09-04T01:36:49.940Z,19.05
2018-09-04T01:39:19.644Z,19.06
2018-09-04T01:41:49.353Z,19.18
2018-09-04T01:44:19.008Z,19.21
2018-09-04T01:46:48.688Z,19.26
2018-09-04T01:49:18.421Z,19.24
2018-09-04T01:51:48.120Z,19.31
2018-09-04T01:54:17.816Z,19.24
2018-09-04T01:56:47.531Z,19.09
2018-09-04T01:59:17.201Z,18.93
2018-09-04T02:01:46.957Z,18.71
2018-09-04T02:04:16.660Z,18.86
2018-09-04T02:06:46.348Z,18.87
2018-09-04T02:09:16.155Z,18.85
2018-09-04T02:11:45.830Z,18.84
2018-09-04T02:14:15.520Z,18.87
2018-09-04T02:16:45.243Z,18.83
2018-09-04T02:19:14.976Z,18.67
2018-09-04T02:21:44.636Z,18.66
2018-09-04T02:24:14.364Z,18.71
2018-09-04T02:26:44.048Z,18.65
2018-09-04T02:29:13.715Z,18.40
2018-09-04T02:31:43.445Z,18.50
2018-09-04T02:34:13.141Z,18.49
2018-09-04T02:36:42.833Z,18.28
2018-09-04T02:39:13.236Z,18.36
2018-09-04T02:41:42.961Z,18.35
2018-09-04T02:44:12.705Z,18.12
2018-09-04T02:46:42.440Z,18.16
2018-09-04T02:49:12.141Z,18.25
2018-09-04T02:51:41.860Z,18.22
2018-09-04T02:54:11.645Z,18.17
2018-09-04T02:56:41.322Z,18.11
2018-09-04T02:59:11.009Z,17.99
2018-09-04T03:01:40.772Z,18.04
2018-09-04T03:04:10.468Z,17.92
2018-09-04T03:06:40.175Z,17.64
2018-09-04T03:09:09.840Z,17.46
2018-09-04T03:11:39.501Z,17.31
2018-09-04T03:14:09.224Z,17.31
2018-09-04T03:16:38.940Z,17.31
2018-09-04T03:19:08.633Z,17.39
2018-09-04T03:21:38.372Z,17.36
2018-09-04T03:24:08.140Z,17.44
2018-09-04T03:26:37.908Z,17.52
2018-09-04T03:29:07.756Z,17.50
2018-09-04T03:31:37.507Z,17.30
2018-09-04T03:34:07.220Z,17.41
2018-09-04T03:36:36.985Z,17.48
2018-09-04T03:39:08.457Z,17.50
2018-09-04T03:41:38.195Z,17.44
2018-09-04T03:44:07.900Z,17.45
2018-09-04T03:46:37.620Z,17.49
2018-09-04T03:49:07.315Z,17.53
2018-09-04T03:51:36.992Z,17.49
2018-09-04T03:54:06.795Z,17.37
2018-09-04T03:56:36.472Z,17.44
2018-09-04T03:59:06.205Z,17.47
2018-09-04T04:01:35.945Z,17.41
2018-09-04T04:04:05.645Z,17.36
2018-09-04T04:06:36.287Z,17.29
2018-09-04T04:09:08.449Z,17.29
2018-09-04T04:11:38.145Z,17.31
2018-09-04T04:14:08.359Z,17.16
2018-09-04T04:16:38.055Z,16.94
2018-09-04T04:19:07.777Z,17.07
2018-09-04T04:21:37.460Z,17.16
2018-09-04T04:24:07.173Z,17.12
2018-09-04T04:26:36.871Z,17.08
2018-09-04T04:29:06.791Z,17.13
2018-09-04T04:31:36.528Z,17.13
2018-09-04T04:34:06.269Z,17.07
2018-09-04T04:36:36.046Z,17.02
2018-09-04T04:39:08.049Z,16.85
2018-09-04T04:41:37.726Z,16.75
2018-09-04T04:44:07.680Z,16.89
2018-09-04T04:46:38.089Z,16.89
2018-09-04T04:49:08.233Z,16.88
2018-09-04T04:51:37.917Z,16.78
2018-09-04T04:54:07.631Z,16.70
2018-09-04T04:56:37.317Z,16.60
2018-09-04T04:59:07.004Z,16.68
2018-09-04T05:01:36.781Z,16.77
2018-09-04T05:04:06.935Z,16.62
2018-09-04T05:06:36.664Z,16.66
2018-09-04T05:09:08.733Z,16.63
2018-09-04T05:11:38.551Z,16.66
2018-09-04T05:14:08.468Z,16.63
2018-09-04T05:16:38.151Z,16.73
2018-09-04T05:19:07.856Z,16.73
2018-09-04T05:21:37.564Z,16.59
2018-09-04T05:24:07.272Z,16.51
2018-09-04T05:26:36.996Z,16.45
2018-09-04T05:29:06.688Z,16.47
2018-09-04T05:31:41.661Z,16.51
2018-09-04T05:34:11.442Z,16.49
2018-09-04T05:36:41.285Z,16.56
2018-09-04T05:39:11.251Z,16.58
2018-09-04T05:41:40.941Z,16.64
2018-09-04T05:44:10.758Z,16.59
2018-09-04T05:46:42.949Z,16.64
2018-09-04T05:49:14.260Z,16.66
2018-09-04T05:51:43.947Z,16.76
2018-09-04T05:54:13.724Z,16.94
2018-09-04T05:56:43.408Z,17.08
2018-09-04T05:59:13.136Z,17.16
2018-09-04T06:01:42.825Z,17.31
2018-09-04T06:04:12.554Z,17.37
2018-09-04T06:06:48.560Z,17.32
2018-09-04T06:09:18.324Z,17.27
2018-09-04T06:11:48.001Z,17.20
2018-09-04T06:14:17.712Z,17.08
2018-09-04T06:16:47.436Z,17.20
2018-09-04T06:19:17.140Z,17.41
2018-09-04T06:21:46.877Z,17.46
2018-09-04T06:24:16.569Z,17.56
2018-09-04T06:26:46.384Z,17.76
2018-09-04T06:29:16.064Z,17.72
2018-09-04T06:31:45.808Z,17.55
2018-09-04T06:34:15.750Z,17.69
2018-09-04T06:36:45.747Z,17.79
2018-09-04T06:39:15.411Z,17.87
2018-09-04T06:41:45.232Z,17.94
2018-09-04T06:44:14.964Z,18.16
2018-09-04T06:46:44.652Z,18.25
2018-09-04T06:49:14.373Z,18.41
2018-09-04T06:51:44.068Z,18.33
2018-09-04T06:54:13.796Z,18.35
2018-09-04T06:56:43.532Z,18.32
2018-09-04T06:59:13.238Z,18.40
2018-09-04T07:01:42.936Z,18.55
2018-09-04T07:04:12.680Z,18.64
2018-09-04T07:06:42.393Z,18.76
2018-09-04T07:09:13.892Z,18.88
2018-09-04T07:11:44.504Z,19.14
2018-09-04T07:14:14.251Z,19.19
2018-09-04T07:16:43.952Z,19.35
2018-09-04T07:19:18.726Z,19.45
2018-09-04T07:21:48.497Z,19.50
2018-09-04T07:24:18.314Z,19.68
2018-09-04T07:26:48.100Z,19.94
2018-09-04T07:29:24.230Z,20.15
2018-09-04T07:31:53.972Z,20.27
2018-09-04T07:34:23.683Z,20.38
2018-09-04T07:36:53.404Z,20.36
2018-09-04T07:39:23.075Z,20.44
2018-09-04T07:41:52.762Z,20.51
2018-09-04T07:44:22.495Z,20.62
2018-09-04T07:46:52.230Z,20.49
2018-09-04T07:49:21.939Z,20.48
2018-09-04T07:51:51.645Z,20.51
2018-09-04T07:54:21.392Z,20.64
2018-09-04T07:56:51.538Z,20.76
2018-09-04T07:59:21.256Z,20.76
2018-09-04T08:01:50.989Z,20.78
2018-09-04T08:04:20.960Z,20.89
2018-09-04T08:06:50.737Z,20.93
2018-09-04T08:09:20.422Z,21.16
2018-09-04T08:11:50.171Z,21.23
2018-09-04T08:14:19.893Z,21.37
2018-09-04T08:16:49.665Z,21.57
2018-09-04T08:19:19.455Z,21.70
2018-09-04T08:21:49.196Z,21.85
2018-09-04T08:24:18.868Z,22.09
2018-09-04T08:26:48.550Z,22.18
2018-09-04T08:29:18.271Z,22.27
2018-09-04T08:31:47.968Z,22.24
2018-09-04T08:34:17.669Z,22.39
2018-09-04T08:36:47.420Z,22.54
2018-09-04T08:39:17.120Z,22.72
2018-09-04T08:41:46.940Z,22.94
2018-09-04T08:44:16.673Z,23.13
2018-09-04T08:46:46.452Z,23.18
2018-09-04T08:49:16.173Z,23.28
2018-09-04T08:51:45.872Z,23.49
2018-09-04T08:54:15.593Z,23.56
2018-09-04T08:56:45.375Z,23.61
2018-09-04T08:59:15.100Z,23.75
2018-09-04T09:01:44.813Z,23.93
2018-09-04T09:04:14.536Z,23.97
2018-09-04T09:06:44.253Z,24.05
2018-09-04T09:09:13.944Z,24.07
2018-09-04T09:11:43.659Z,24.31
2018-09-04T09:14:13.428Z,24.38
2018-09-04T09:16:43.175Z,24.48
2018-09-04T09:19:12.860Z,24.48
2018-09-04T09:21:42.555Z,24.61
2018-09-04T09:24:12.294Z,24.65
2018-09-04T09:26:42.242Z,24.78
2018-09-04T09:29:11.955Z,24.82
2018-09-04T09:31:41.707Z,24.84
2018-09-04T09:34:11.448Z,24.98
2018-09-04T09:36:41.431Z,24.93
2018-09-04T09:39:11.392Z,25.04
2018-09-04T09:41:41.127Z,25.15
2018-09-04T09:44:10.845Z,25.18
2018-09-04T09:46:40.520Z,25.28
2018-09-04T09:49:10.244Z,25.37
2018-09-04T09:51:39.933Z,25.50
2018-09-04T09:54:09.604Z,25.49
2018-09-04T09:56:39.355Z,25.63
2018-09-04T09:59:09.105Z,25.72
2018-09-04T10:01:43.841Z,25.83
2018-09-04T10:04:13.646Z,25.83
2018-09-04T10:06:43.337Z,25.82
2018-09-04T10:09:13.012Z,25.95
2018-09-04T10:11:42.768Z,26.08
2018-09-04T10:14:12.567Z,26.13
2018-09-04T10:16:42.268Z,26.15
2018-09-04T10:19:11.999Z,26.27
2018-09-04T10:21:41.700Z,26.39
2018-09-04T10:24:11.414Z,26.51
2018-09-04T10:26:41.213Z,26.61
2018-09-04T10:29:10.963Z,26.62
2018-09-04T10:31:40.672Z,26.56
2018-09-04T10:34:10.522Z,26.64
2018-09-04T10:36:40.294Z,26.78
2018-09-04T10:39:15.338Z,26.87
2018-09-04T10:41:45.044Z,26.82
2018-09-04T10:44:14.730Z,26.98
2018-09-04T10:46:44.460Z,27.00
2018-09-04T10:49:14.145Z,27.04
2018-09-04T10:51:43.880Z,27.21
2018-09-04T10:54:13.652Z,27.08
2018-09-04T10:56:43.429Z,27.14
2018-09-04T10:59:13.104Z,27.19
2018-09-04T11:01:42.844Z,27.22
2018-09-04T11:04:12.588Z,27.27
2018-09-04T11:06:42.293Z,27.39
2018-09-04T11:09:12.296Z,27.49
2018-09-04T11:11:42.891Z,27.59
2018-09-04T11:14:12.565Z,27.55
2018-09-04T11:16:42.271Z,27.54
2018-09-04T11:19:11.955Z,27.43
2018-09-04T11:21:41.644Z,27.52
2018-09-04T11:24:11.337Z,27.66
2018-09-04T11:26:41.013Z,27.65
2018-09-04T11:29:12.314Z,27.56
2018-09-04T11:31:42.076Z,27.48
2018-09-04T11:34:11.742Z,27.62
2018-09-04T11:36:41.489Z,27.70
2018-09-04T11:39:11.762Z,27.78
2018-09-04T11:41:41.500Z,27.94
2018-09-04T11:44:11.154Z,27.88
2018-09-04T11:46:40.856Z,28.04
2018-09-04T11:49:10.561Z,28.22
2018-09-04T11:51:40.243Z,28.33
2018-09-04T11:54:09.963Z,28.37
2018-09-04T11:56:40.860Z,28.36
2018-09-04T11:59:10.661Z,28.53
2018-09-04T12:01:43.740Z,28.49
2018-09-04T12:04:13.442Z,28.58
2018-09-04T12:06:43.190Z,28.59
2018-09-04T12:09:12.831Z,28.63
2018-09-04T12:11:47.013Z,28.75
2018-09-04T12:14:16.691Z,28.75
2018-09-04T12:16:46.956Z,28.46
2018-09-04T12:19:16.722Z,28.59
2018-09-04T12:21:46.408Z,28.75
2018-09-04T12:24:16.169Z,28.90
2018-09-04T12:26:45.855Z,28.95
2018-09-04T12:29:15.550Z,28.95
2018-09-04T12:31:45.296Z,28.98
2018-09-04T12:34:15.072Z,29.01
2018-09-04T12:36:44.764Z,29.16
2018-09-04T12:39:14.453Z,29.01
2018-09-04T12:41:44.244Z,28.83
2018-09-04T12:44:13.919Z,28.93
2018-09-04T12:46:43.636Z,29.07
2018-09-04T12:49:13.326Z,29.13
2018-09-04T12:51:43.039Z,29.17
2018-09-04T12:54:12.708Z,29.38
2018-09-04T12:56:42.411Z,29.37
2018-09-04T12:59:12.117Z,29.44
2018-09-04T13:01:41.804Z,29.60
2018-09-04T13:04:11.459Z,29.81
2018-09-04T13:06:41.163Z,29.87
2018-09-04T13:09:10.909Z,29.85
2018-09-04T13:11:40.580Z,29.87
2018-09-04T13:14:10.324Z,29.73
2018-09-04T13:16:40.000Z,29.46
2018-09-04T13:19:09.736Z,29.61
2018-09-04T13:21:39.530Z,29.56
2018-09-04T13:24:09.200Z,29.70
2018-09-04T13:26:38.856Z,29.83
2018-09-04T13:29:08.577Z,29.87
2018-09-04T13:31:38.240Z,30.02
2018-09-04T13:34:07.944Z,30.12
2018-09-04T13:36:37.871Z,30.26
2018-09-04T13:39:07.532Z,30.27
2018-09-04T13:41:37.224Z,30.37
2018-09-04T13:44:06.947Z,30.34
2018-09-04T13:46:36.613Z,30.45
2018-09-04T13:49:07.032Z,30.47
2018-09-04T13:51:37.193Z,30.47
2018-09-04T13:54:06.904Z,30.43
2018-09-04T13:56:36.655Z,30.46
2018-09-04T13:59:06.364Z,30.59
2018-09-04T14:01:36.089Z,30.50
2018-09-04T14:04:05.817Z,30.42
2018-09-04T14:06:35.521Z,30.37
2018-09-04T14:09:06.523Z,30.33
2018-09-04T14:11:36.219Z,30.38
2018-09-04T14:14:05.948Z,30.17
2018-09-04T14:16:43.149Z,30.05
2018-09-04T14:19:05.504Z,30.01
2018-09-04T14:21:35.200Z,29.91
2018-09-04T14:24:04.912Z,29.84
2018-09-04T14:26:34.620Z,29.70
2018-09-04T14:29:07.362Z,29.78
2018-09-04T14:31:34.054Z,29.74
2018-09-04T14:34:03.713Z,29.70
2018-09-04T14:36:33.451Z,29.61
2018-09-04T14:39:03.225Z,29.37
2018-09-04T14:41:33.096Z,29.11
2018-09-04T14:44:02.759Z,28.97
2018-09-04T14:46:32.500Z,28.81
2018-09-04T14:49:02.556Z,28.68
2018-09-04T14:51:32.243Z,28.53
2018-09-04T14:54:02.138Z,28.46
2018-09-04T14:56:31.821Z,28.37
2018-09-04T14:59:01.506Z,28.30
2018-09-04T15:01:31.212Z,28.32
2018-09-04T15:04:00.934Z,28.18
2018-09-04T15:06:30.695Z,28.17
2018-09-04T15:09:00.397Z,28.05
2018-09-04T15:11:30.145Z,28.00
2018-09-04T15:13:59.806Z,27.91
2018-09-04T15:16:29.484Z,27.85
2018-09-04T15:18:59.214Z,27.80
2018-09-04T15:21:28.916Z,27.77
2018-09-04T15:23:58.576Z,27.73
2018-09-04T15:26:28.302Z,27.74
2018-09-04T15:28:57.980Z,27.79
2018-09-04T15:31:27.667Z,27.75
2018-09-04T15:33:57.365Z,27.71
2018-09-04T15:36:27.040Z,27.67
2018-09-04T15:38:56.799Z,27.58
2018-09-04T15:41:26.492Z,27.56
2018-09-04T15:43:56.212Z,27.53
2018-09-04T15:46:25.890Z,27.38
2018-09-04T15:50:02.679Z,27.37
2018-09-04T15:52:32.336Z,27.31
2018-09-04T15:55:01.998Z,27.33
2018-09-04T15:57:31.709Z,27.23
2018-09-04T16:00:01.372Z,27.16
2018-09-04T16:02:31.028Z,27.16
2018-09-04T16:05:00.704Z,27.16
2018-09-04T16:07:30.369Z,27.12
2018-09-04T16:10:00.129Z,26.99
2018-09-04T16:12:29.812Z,26.97
2018-09-04T16:14:59.501Z,26.91
2018-09-04T16:17:29.244Z,26.88
2018-09-04T16:19:58.961Z,26.84
2018-09-04T16:22:29.037Z,26.82
2018-09-04T16:24:58.780Z,26.79
2018-09-04T16:27:28.444Z,26.76
2018-09-04T16:29:58.164Z,26.78
2018-09-04T16:32:27.840Z,26.71
2018-09-04T16:34:57.525Z,26.69
2018-09-04T16:37:27.404Z,26.67
2018-09-04T16:39:57.146Z,26.63
2018-09-04T16:42:26.817Z,26.54
2018-09-04T16:44:56.519Z,26.59
2018-09-04T16:47:26.196Z,26.53
2018-09-04T16:49:55.857Z,26.46
2018-09-04T16:52:25.648Z,26.40
2018-09-04T16:54:55.397Z,26.46
2018-09-04T16:57:25.165Z,26.39
2018-09-04T16:59:55.240Z,26.36
2018-09-04T17:02:25.045Z,26.38
2018-09-04T17:04:54.917Z,26.28
2018-09-04T17:07:24.655Z,26.22
2018-09-04T17:09:54.348Z,26.21
2018-09-04T17:12:24.565Z,26.22
2018-09-04T17:14:54.268Z,26.13
2018-09-04T17:17:23.968Z,26.02
2018-09-04T17:19:53.693Z,26.00
2018-09-04T17:22:23.732Z,25.91
2018-09-04T17:24:53.656Z,25.82
2018-09-04T17:27:23.349Z,25.74
2018-09-04T17:29:53.105Z,25.66
2018-09-04T17:32:22.856Z,25.61
2018-09-04T17:34:52.520Z,25.58
2018-09-04T17:37:22.452Z,25.52
2018-09-04T17:39:52.336Z,25.50
2018-09-04T17:42:21.984Z,25.43
2018-09-04T17:44:51.740Z,25.31
2018-09-04T17:47:21.423Z,25.21
2018-09-04T17:49:51.132Z,25.15
2018-09-04T17:52:20.834Z,25.08
2018-09-04T17:54:50.547Z,24.98
2018-09-04T17:57:20.265Z,24.93
2018-09-04T17:59:49.952Z,24.85
2018-09-04T18:02:19.653Z,24.74
2018-09-04T18:04:49.429Z,24.66
2018-09-04T18:07:19.159Z,24.57
2018-09-04T18:09:48.827Z,24.46
2018-09-04T18:12:18.549Z,24.36
2018-09-04T18:14:48.245Z,24.32
2018-09-04T18:17:18.037Z,24.21
2018-09-04T18:19:47.848Z,24.14
2018-09-04T18:22:17.578Z,24.14
2018-09-04T18:24:47.272Z,24.05
2018-09-04T18:27:16.956Z,24.00
2018-09-04T18:29:46.615Z,23.88
2018-09-04T18:32:16.333Z,23.86
2018-09-04T18:34:45.989Z,23.81
2018-09-04T18:37:15.701Z,23.75
2018-09-04T18:39:45.433Z,23.66
2018-09-04T18:42:15.197Z,23.60
2018-09-04T18:44:44.916Z,23.54
2018-09-04T18:50:05.805Z,23.43
2018-09-04T18:52:35.516Z,23.36
2018-09-04T18:55:05.262Z,23.31
2018-09-04T18:57:34.970Z,23.23
2018-09-04T19:00:04.992Z,23.19
2018-09-04T19:02:34.683Z,23.16
2018-09-04T19:05:04.373Z,23.16
2018-09-04T19:07:34.054Z,23.15
2018-09-04T19:10:03.901Z,23.10
2018-09-04T19:12:33.658Z,23.03
2018-09-04T19:15:03.331Z,22.96
2018-09-04T19:17:33.082Z,22.89
2018-09-04T19:20:02.769Z,22.87
2018-09-04T19:22:32.471Z,22.81
2018-09-04T19:25:02.169Z,22.77
2018-09-04T19:27:31.922Z,22.71
2018-09-04T19:30:01.670Z,22.60
2018-09-04T19:32:31.362Z,22.53
2018-09-04T19:35:01.025Z,22.53
2018-09-04T19:37:30.956Z,22.38
2018-09-04T19:40:00.981Z,22.18
2018-09-04T19:42:30.644Z,22.02
2018-09-04T19:45:00.409Z,21.89
2018-09-04T19:47:30.099Z,21.82
2018-09-04T19:50:00.048Z,21.92
2018-09-04T19:52:29.764Z,21.81
2018-09-04T19:54:59.503Z,21.85
2018-09-04T19:57:29.187Z,21.63
2018-09-04T19:59:58.937Z,21.81
2018-09-04T20:02:28.747Z,21.62
2018-09-04T20:04:58.457Z,21.51
2018-09-04T20:07:28.249Z,21.57
2018-09-04T20:09:57.950Z,21.50
2018-09-04T20:12:27.689Z,21.50
2018-09-04T20:15:03.981Z,21.56
2018-09-04T20:17:33.764Z,21.68
2018-09-04T20:20:03.541Z,21.75
2018-09-04T20:22:33.232Z,21.81
2018-09-04T20:25:02.921Z,21.68
2018-09-04T20:27:32.631Z,21.46
2018-09-04T20:30:02.300Z,21.14
2018-09-04T20:32:32.033Z,21.11
2018-09-04T20:35:01.717Z,21.06
2018-09-04T20:37:31.448Z,20.94
2018-09-04T20:40:01.209Z,21.04
2018-09-04T20:42:30.888Z,21.02
2018-09-04T20:45:00.621Z,21.08
2018-09-04T20:47:30.389Z,21.10
2018-09-04T20:50:00.065Z,20.99
2018-09-04T20:52:29.816Z,21.06
2018-09-04T20:54:59.539Z,21.03
2018-09-04T20:57:29.424Z,21.00
2018-09-04T21:00:11.761Z,20.93
2018-09-04T21:02:52.411Z,20.70
2018-09-04T21:05:33.209Z,20.83
2018-09-04T21:09:24.874Z,20.84
2018-09-04T21:11:54.592Z,20.82
2018-09-04T21:14:24.616Z,20.86
2018-09-04T21:16:54.413Z,20.92
2018-09-04T21:19:24.119Z,20.97
2018-09-04T21:21:53.804Z,20.98
2018-09-04T21:24:23.576Z,20.97
2018-09-04T21:26:53.252Z,20.91
2018-09-04T21:29:22.926Z,20.89
2018-09-04T21:31:52.660Z,20.84
2018-09-04T21:34:22.336Z,20.81
2018-09-04T21:36:52.044Z,20.76
2018-09-04T21:39:22.014Z,20.73
2018-09-04T21:41:51.700Z,20.67
2018-09-04T21:44:21.426Z,20.62
2018-09-04T21:46:51.138Z,20.56
2018-09-04T21:49:20.835Z,20.58
2018-09-04T21:51:50.497Z,20.49
2018-09-04T21:54:20.184Z,20.40
2018-09-04T21:56:49.876Z,20.37
2018-09-04T21:59:19.600Z,20.41
2018-09-04T22:01:49.299Z,20.36
2018-09-04T22:04:19.197Z,20.30
2018-09-04T22:06:48.866Z,20.41
2018-09-04T22:09:18.724Z,20.45
2018-09-04T22:11:48.492Z,20.44
2018-09-04T22:14:18.211Z,20.38
2018-09-04T22:16:47.885Z,20.35
2018-09-04T22:19:17.580Z,20.26
2018-09-04T22:21:47.292Z,20.24
2018-09-04T22:24:16.980Z,20.19
2018-09-04T22:26:46.668Z,20.17
2018-09-04T22:29:16.361Z,20.08
2018-09-04T22:31:46.081Z,20.04
2018-09-04T22:34:16.784Z,19.99
2018-09-04T22:36:46.492Z,20.01
2018-09-04T22:39:16.211Z,19.98
2018-09-04T22:41:45.904Z,19.92
2018-09-04T22:44:15.609Z,19.90
2018-09-04T22:46:45.453Z,19.85
2018-09-04T22:49:15.464Z,19.75
2018-09-04T22:51:45.168Z,19.62
2018-09-04T22:54:14.819Z,19.63
2018-09-04T22:56:44.492Z,19.66
2018-09-04T22:59:14.237Z,19.63
2018-09-04T23:01:43.911Z,19.62
2018-09-04T23:04:13.568Z,19.63
2018-09-04T23:06:43.261Z,19.64
2018-09-04T23:09:12.960Z,19.61
2018-09-04T23:11:42.667Z,19.67
2018-09-04T23:14:12.408Z,19.58
2018-09-04T23:16:42.168Z,19.58
2018-09-04T23:19:11.848Z,19.49
2018-09-04T23:21:41.531Z,19.57
2018-09-04T23:24:11.222Z,19.54
2018-09-04T23:26:40.918Z,19.61
2018-09-04T23:29:10.596Z,19.62
2018-09-04T23:31:40.287Z,19.54
2018-09-04T23:34:09.986Z,19.60
2018-09-04T23:36:39.756Z,19.53
2018-09-04T23:39:09.445Z,19.59
2018-09-04T23:41:39.237Z,19.59
2018-09-04T23:44:09.205Z,19.48
2018-09-04T23:46:38.924Z,19.47
2018-09-04T23:49:08.889Z,19.25
2018-09-04T23:51:38.581Z,19.11
2018-09-04T23:54:08.244Z,18.87
2018-09-04T23:56:37.964Z,18.77
2018-09-04T23:59:07.632Z,18.86
